sensor_id;sensor_type;location;lat;lon;timestamp;P1;durP1;ratioP1;P2;durP2;ratioP2
71767;SDS011;59604;52.138;5.446;2023-02-18T00:00:26;42.28;;;13.27;;
71767;SDS011;59604;52.138;5.446;2023-02-18T00:02:53;34.85;;;12.38;;
71767;SDS011;59604;52.138;5.446;2023-02-18T00:05:21;38.67;;;13.90;;
71767;SDS011;59604;52.138;5.446;2023-02-18T00:07:48;38.70;;;13.73;;
71767;SDS011;59604;52.138;5.446;2023-02-18T00:10:14;39.05;;;14.80;;
71767;SDS011;59604;52.138;5.446;2023-02-18T00:12:42;39.22;;;13.25;;
71767;SDS011;59604;52.138;5.446;2023-02-18T00:15:08;38.95;;;14.43;;
71767;SDS011;59604;52.138;5.446;2023-02-18T00:17:35;40.35;;;14.35;;
71767;SDS011;59604;52.138;5.446;2023-02-18T00:20:03;38.50;;;13.90;;
71767;SDS011;59604;52.138;5.446;2023-02-18T00:22:31;43.03;;;14.00;;
71767;SDS011;59604;52.138;5.446;2023-02-18T00:24:57;37.80;;;13.30;;
71767;SDS011;59604;52.138;5.446;2023-02-18T00:27:24;45.13;;;13.50;;
71767;SDS011;59604;52.138;5.446;2023-02-18T00:29:50;38.35;;;12.73;;
71767;SDS011;59604;52.138;5.446;2023-02-18T00:32:17;46.40;;;13.93;;
71767;SDS011;59604;52.138;5.446;2023-02-18T00:34:44;48.03;;;14.30;;
71767;SDS011;59604;52.138;5.446;2023-02-18T00:37:10;42.88;;;13.55;;
71767;SDS011;59604;52.138;5.446;2023-02-18T00:39:37;44.42;;;13.18;;
71767;SDS011;59604;52.138;5.446;2023-02-18T00:42:04;48.72;;;14.93;;
71767;SDS011;59604;52.138;5.446;2023-02-18T00:44:30;47.03;;;13.98;;
71767;SDS011;59604;52.138;5.446;2023-02-18T00:46:57;48.80;;;15.30;;
71767;SDS011;59604;52.138;5.446;2023-02-18T00:49:24;50.00;;;15.52;;
71767;SDS011;59604;52.138;5.446;2023-02-18T00:51:50;49.67;;;15.38;;
71767;SDS011;59604;52.138;5.446;2023-02-18T00:54:17;53.17;;;15.48;;
71767;SDS011;59604;52.138;5.446;2023-02-18T00:56:43;45.05;;;13.88;;
71767;SDS011;59604;52.138;5.446;2023-02-18T00:59:10;48.75;;;13.65;;
71767;SDS011;59604;52.138;5.446;2023-02-18T01:01:37;45.63;;;14.35;;
71767;SDS011;59604;52.138;5.446;2023-02-18T01:04:03;45.60;;;14.20;;
71767;SDS011;59604;52.138;5.446;2023-02-18T01:06:30;48.05;;;14.02;;
71767;SDS011;59604;52.138;5.446;2023-02-18T01:08:57;49.45;;;12.35;;
71767;SDS011;59604;52.138;5.446;2023-02-18T01:11:23;43.38;;;12.20;;
71767;SDS011;59604;52.138;5.446;2023-02-18T01:13:50;44.95;;;13.55;;
71767;SDS011;59604;52.138;5.446;2023-02-18T01:16:17;41.53;;;11.73;;
71767;SDS011;59604;52.138;5.446;2023-02-18T01:18:44;41.60;;;11.95;;
71767;SDS011;59604;52.138;5.446;2023-02-18T01:21:10;37.72;;;10.50;;
71767;SDS011;59604;52.138;5.446;2023-02-18T01:23:38;40.08;;;11.23;;
71767;SDS011;59604;52.138;5.446;2023-02-18T01:26:06;35.90;;;10.93;;
71767;SDS011;59604;52.138;5.446;2023-02-18T01:28:33;36.70;;;10.60;;
71767;SDS011;59604;52.138;5.446;2023-02-18T01:31:04;37.90;;;10.18;;
71767;SDS011;59604;52.138;5.446;2023-02-18T01:33:33;36.15;;;10.07;;
71767;SDS011;59604;52.138;5.446;2023-02-18T01:35:59;31.35;;;10.13;;
71767;SDS011;59604;52.138;5.446;2023-02-18T01:38:26;33.17;;;9.95;;
71767;SDS011;59604;52.138;5.446;2023-02-18T01:40:53;29.85;;;9.20;;
71767;SDS011;59604;52.138;5.446;2023-02-18T01:43:20;32.47;;;9.27;;
71767;SDS011;59604;52.138;5.446;2023-02-18T01:53:51;30.77;;;9.38;;
71767;SDS011;59604;52.138;5.446;2023-02-18T01:56:26;30.02;;;8.98;;
71767;SDS011;59604;52.138;5.446;2023-02-18T01:59:00;31.85;;;9.35;;
71767;SDS011;59604;52.138;5.446;2023-02-18T02:01:31;33.28;;;9.70;;
71767;SDS011;59604;52.138;5.446;2023-02-18T02:03:58;31.08;;;9.35;;
71767;SDS011;59604;52.138;5.446;2023-02-18T02:06:25;32.80;;;8.75;;
71767;SDS011;59604;52.138;5.446;2023-02-18T02:08:53;31.15;;;9.27;;
71767;SDS011;59604;52.138;5.446;2023-02-18T02:17:04;36.95;;;9.55;;
71767;SDS011;59604;52.138;5.446;2023-02-18T02:43:17;34.03;;;9.77;;
71767;SDS011;59604;52.138;5.446;2023-02-18T02:45:57;42.70;;;10.88;;
71767;SDS011;59604;52.138;5.446;2023-02-18T02:51:46;35.05;;;10.27;;
71767;SDS011;59604;52.138;5.446;2023-02-18T02:54:23;37.80;;;10.48;;
71767;SDS011;59604;52.138;5.446;2023-02-18T02:57:08;36.22;;;10.48;;
71767;SDS011;59604;52.138;5.446;2023-02-18T02:59:56;36.78;;;10.55;;
71767;SDS011;59604;52.138;5.446;2023-02-18T03:07:55;34.13;;;10.57;;
71767;SDS011;59604;52.138;5.446;2023-02-18T03:13:15;39.45;;;11.40;;
71767;SDS011;59604;52.138;5.446;2023-02-18T03:16:12;38.13;;;10.82;;
71767;SDS011;59604;52.138;5.446;2023-02-18T03:21:26;35.58;;;9.57;;
71767;SDS011;59604;52.138;5.446;2023-02-18T03:23:58;36.72;;;9.70;;
71767;SDS011;59604;52.138;5.446;2023-02-18T03:26:29;35.92;;;9.68;;
71767;SDS011;59604;52.138;5.446;2023-02-18T03:28:59;34.42;;;10.15;;
71767;SDS011;59604;52.138;5.446;2023-02-18T03:31:29;35.92;;;9.82;;
71767;SDS011;59604;52.138;5.446;2023-02-18T03:34:02;32.28;;;9.48;;
71767;SDS011;59604;52.138;5.446;2023-02-18T03:36:33;33.40;;;8.80;;
71767;SDS011;59604;52.138;5.446;2023-02-18T03:39:08;33.95;;;9.55;;
71767;SDS011;59604;52.138;5.446;2023-02-18T03:41:38;31.20;;;9.18;;
71767;SDS011;59604;52.138;5.446;2023-02-18T03:44:06;32.42;;;9.25;;
71767;SDS011;59604;52.138;5.446;2023-02-18T03:46:34;27.67;;;7.43;;
71767;SDS011;59604;52.138;5.446;2023-02-18T03:49:03;28.00;;;7.57;;
71767;SDS011;59604;52.138;5.446;2023-02-18T03:51:30;28.55;;;7.10;;
71767;SDS011;59604;52.138;5.446;2023-02-18T03:53:57;23.77;;;6.57;;
71767;SDS011;59604;52.138;5.446;2023-02-18T03:56:24;22.63;;;6.25;;
71767;SDS011;59604;52.138;5.446;2023-02-18T03:58:50;24.50;;;6.43;;
71767;SDS011;59604;52.138;5.446;2023-02-18T04:01:17;22.02;;;5.70;;
71767;SDS011;59604;52.138;5.446;2023-02-18T04:03:43;15.70;;;4.93;;
71767;SDS011;59604;52.138;5.446;2023-02-18T04:06:10;13.93;;;4.03;;
71767;SDS011;59604;52.138;5.446;2023-02-18T04:08:36;12.70;;;3.97;;
71767;SDS011;59604;52.138;5.446;2023-02-18T04:11:03;15.23;;;4.18;;
71767;SDS011;59604;52.138;5.446;2023-02-18T04:13:30;12.15;;;3.50;;
71767;SDS011;59604;52.138;5.446;2023-02-18T04:15:57;11.43;;;3.55;;
71767;SDS011;59604;52.138;5.446;2023-02-18T04:18:24;10.13;;;3.08;;
71767;SDS011;59604;52.138;5.446;2023-02-18T04:20:50;10.13;;;2.55;;
71767;SDS011;59604;52.138;5.446;2023-02-18T04:23:17;9.27;;;2.38;;
71767;SDS011;59604;52.138;5.446;2023-02-18T04:25:44;9.25;;;2.53;;
71767;SDS011;59604;52.138;5.446;2023-02-18T04:28:12;8.40;;;2.58;;
71767;SDS011;59604;52.138;5.446;2023-02-18T04:30:40;9.43;;;2.60;;
71767;SDS011;59604;52.138;5.446;2023-02-18T04:33:07;8.25;;;2.67;;
71767;SDS011;59604;52.138;5.446;2023-02-18T04:35:33;7.97;;;2.30;;
71767;SDS011;59604;52.138;5.446;2023-02-18T04:38:02;7.45;;;2.60;;
71767;SDS011;59604;52.138;5.446;2023-02-18T04:40:29;7.30;;;2.25;;
71767;SDS011;59604;52.138;5.446;2023-02-18T04:42:56;9.77;;;2.92;;
71767;SDS011;59604;52.138;5.446;2023-02-18T04:45:23;8.13;;;3.08;;
71767;SDS011;59604;52.138;5.446;2023-02-18T04:47:51;9.40;;;3.17;;
71767;SDS011;59604;52.138;5.446;2023-02-18T04:50:18;9.10;;;3.20;;
71767;SDS011;59604;52.138;5.446;2023-02-18T04:52:45;8.75;;;3.17;;
71767;SDS011;59604;52.138;5.446;2023-02-18T04:55:11;9.07;;;3.33;;
71767;SDS011;59604;52.138;5.446;2023-02-18T04:57:38;9.70;;;3.03;;
71767;SDS011;59604;52.138;5.446;2023-02-18T05:00:05;8.75;;;3.17;;
71767;SDS011;59604;52.138;5.446;2023-02-18T05:02:33;9.23;;;3.08;;
71767;SDS011;59604;52.138;5.446;2023-02-18T05:05:00;8.32;;;2.85;;
71767;SDS011;59604;52.138;5.446;2023-02-18T05:07:27;9.50;;;3.08;;
71767;SDS011;59604;52.138;5.446;2023-02-18T05:09:53;8.73;;;3.30;;
71767;SDS011;59604;52.138;5.446;2023-02-18T05:12:20;9.75;;;3.83;;
71767;SDS011;59604;52.138;5.446;2023-02-18T05:14:46;11.32;;;3.65;;
71767;SDS011;59604;52.138;5.446;2023-02-18T05:17:13;11.20;;;4.05;;
71767;SDS011;59604;52.138;5.446;2023-02-18T05:19:40;12.18;;;4.45;;
71767;SDS011;59604;52.138;5.446;2023-02-18T05:22:06;11.93;;;4.25;;
71767;SDS011;59604;52.138;5.446;2023-02-18T05:24:33;10.70;;;4.20;;
71767;SDS011;59604;52.138;5.446;2023-02-18T05:27:00;10.23;;;4.00;;
71767;SDS011;59604;52.138;5.446;2023-02-18T05:29:26;11.05;;;4.50;;
71767;SDS011;59604;52.138;5.446;2023-02-18T05:31:53;13.18;;;4.43;;
71767;SDS011;59604;52.138;5.446;2023-02-18T05:34:20;10.43;;;3.85;;
71767;SDS011;59604;52.138;5.446;2023-02-18T05:36:46;12.05;;;4.15;;
71767;SDS011;59604;52.138;5.446;2023-02-18T05:39:13;10.48;;;3.80;;
71767;SDS011;59604;52.138;5.446;2023-02-18T05:41:40;10.30;;;3.95;;
71767;SDS011;59604;52.138;5.446;2023-02-18T05:44:06;12.52;;;4.20;;
71767;SDS011;59604;52.138;5.446;2023-02-18T05:46:52;11.02;;;4.35;;
71767;SDS011;59604;52.138;5.446;2023-02-18T05:49:18;11.20;;;4.45;;
71767;SDS011;59604;52.138;5.446;2023-02-18T05:51:45;13.65;;;4.85;;
71767;SDS011;59604;52.138;5.446;2023-02-18T05:54:11;13.77;;;5.05;;
71767;SDS011;59604;52.138;5.446;2023-02-18T05:56:38;17.92;;;6.47;;
71767;SDS011;59604;52.138;5.446;2023-02-18T05:59:05;15.73;;;6.15;;
71767;SDS011;59604;52.138;5.446;2023-02-18T06:01:31;24.17;;;8.27;;
71767;SDS011;59604;52.138;5.446;2023-02-18T06:03:58;22.90;;;7.65;;
71767;SDS011;59604;52.138;5.446;2023-02-18T06:06:24;20.13;;;7.75;;
71767;SDS011;59604;52.138;5.446;2023-02-18T06:08:51;23.20;;;8.77;;
71767;SDS011;59604;52.138;5.446;2023-02-18T06:11:18;21.05;;;8.38;;
71767;SDS011;59604;52.138;5.446;2023-02-18T06:13:44;18.70;;;7.88;;
71767;SDS011;59604;52.138;5.446;2023-02-18T06:16:12;22.80;;;8.75;;
71767;SDS011;59604;52.138;5.446;2023-02-18T06:18:38;17.95;;;7.68;;
71767;SDS011;59604;52.138;5.446;2023-02-18T06:21:05;21.98;;;8.30;;
71767;SDS011;59604;52.138;5.446;2023-02-18T06:23:32;17.63;;;7.78;;
71767;SDS011;59604;52.138;5.446;2023-02-18T06:25:59;20.65;;;7.45;;
71767;SDS011;59604;52.138;5.446;2023-02-18T06:28:25;20.55;;;8.02;;
71767;SDS011;59604;52.138;5.446;2023-02-18T06:30:52;21.10;;;8.43;;
71767;SDS011;59604;52.138;5.446;2023-02-18T06:33:19;19.25;;;7.65;;
71767;SDS011;59604;52.138;5.446;2023-02-18T06:35:53;20.63;;;8.23;;
71767;SDS011;59604;52.138;5.446;2023-02-18T06:38:21;22.35;;;8.32;;
71767;SDS011;59604;52.138;5.446;2023-02-18T06:40:48;19.25;;;7.75;;
71767;SDS011;59604;52.138;5.446;2023-02-18T06:43:15;21.75;;;8.30;;
71767;SDS011;59604;52.138;5.446;2023-02-18T06:45:42;19.58;;;7.55;;
71767;SDS011;59604;52.138;5.446;2023-02-18T06:48:08;20.73;;;7.05;;
71767;SDS011;59604;52.138;5.446;2023-02-18T06:50:35;18.88;;;6.85;;
71767;SDS011;59604;52.138;5.446;2023-02-18T06:53:02;17.27;;;6.57;;
71767;SDS011;59604;52.138;5.446;2023-02-18T06:55:29;17.83;;;6.72;;
71767;SDS011;59604;52.138;5.446;2023-02-18T06:57:55;16.08;;;6.35;;
71767;SDS011;59604;52.138;5.446;2023-02-18T07:00:22;18.65;;;6.75;;
71767;SDS011;59604;52.138;5.446;2023-02-18T07:02:48;17.05;;;5.75;;
71767;SDS011;59604;52.138;5.446;2023-02-18T07:05:15;16.33;;;6.10;;
71767;SDS011;59604;52.138;5.446;2023-02-18T07:07:42;15.98;;;5.88;;
71767;SDS011;59604;52.138;5.446;2023-02-18T07:10:09;18.55;;;6.40;;
71767;SDS011;59604;52.138;5.446;2023-02-18T07:12:36;19.10;;;6.85;;
71767;SDS011;59604;52.138;5.446;2023-02-18T07:15:02;20.27;;;7.85;;
71767;SDS011;59604;52.138;5.446;2023-02-18T07:17:29;23.65;;;7.22;;
71767;SDS011;59604;52.138;5.446;2023-02-18T07:19:56;23.85;;;7.55;;
71767;SDS011;59604;52.138;5.446;2023-02-18T07:22:22;22.80;;;7.93;;
71767;SDS011;59604;52.138;5.446;2023-02-18T07:24:50;23.52;;;7.90;;
71767;SDS011;59604;52.138;5.446;2023-02-18T07:27:20;23.67;;;7.95;;
71767;SDS011;59604;52.138;5.446;2023-02-18T07:29:47;25.98;;;8.90;;
71767;SDS011;59604;52.138;5.446;2023-02-18T07:32:15;23.38;;;8.30;;
71767;SDS011;59604;52.138;5.446;2023-02-18T07:34:43;26.77;;;8.73;;
71767;SDS011;59604;52.138;5.446;2023-02-18T07:37:09;22.48;;;8.80;;
71767;SDS011;59604;52.138;5.446;2023-02-18T07:39:41;23.38;;;8.65;;
71767;SDS011;59604;52.138;5.446;2023-02-18T07:42:09;23.75;;;9.63;;
71767;SDS011;59604;52.138;5.446;2023-02-18T07:44:36;29.63;;;9.20;;
71767;SDS011;59604;52.138;5.446;2023-02-18T07:47:03;25.27;;;8.88;;
71767;SDS011;59604;52.138;5.446;2023-02-18T07:49:31;24.35;;;9.23;;
71767;SDS011;59604;52.138;5.446;2023-02-18T07:51:58;24.70;;;8.50;;
71767;SDS011;59604;52.138;5.446;2023-02-18T07:54:25;19.02;;;8.30;;
71767;SDS011;59604;52.138;5.446;2023-02-18T07:56:52;22.30;;;8.65;;
71767;SDS011;59604;52.138;5.446;2023-02-18T07:59:20;17.92;;;7.82;;
71767;SDS011;59604;52.138;5.446;2023-02-18T08:01:46;21.38;;;7.35;;
71767;SDS011;59604;52.138;5.446;2023-02-18T08:04:13;18.63;;;6.53;;
71767;SDS011;59604;52.138;5.446;2023-02-18T08:06:44;18.02;;;6.18;;
71767;SDS011;59604;52.138;5.446;2023-02-18T08:09:13;17.73;;;6.50;;
71767;SDS011;59604;52.138;5.446;2023-02-18T08:11:39;22.10;;;5.43;;
71767;SDS011;59604;52.138;5.446;2023-02-18T08:14:06;17.23;;;5.03;;
71767;SDS011;59604;52.138;5.446;2023-02-18T08:16:33;17.90;;;4.97;;
71767;SDS011;59604;52.138;5.446;2023-02-18T08:19:00;15.15;;;4.63;;
71767;SDS011;59604;52.138;5.446;2023-02-18T08:21:29;16.45;;;4.43;;
71767;SDS011;59604;52.138;5.446;2023-02-18T08:23:59;14.52;;;4.75;;
71767;SDS011;59604;52.138;5.446;2023-02-18T08:26:26;20.00;;;4.20;;
71767;SDS011;59604;52.138;5.446;2023-02-18T08:28:52;14.52;;;3.78;;
71767;SDS011;59604;52.138;5.446;2023-02-18T08:31:20;17.75;;;3.45;;
71767;SDS011;59604;52.138;5.446;2023-02-18T08:33:53;16.65;;;3.40;;
71767;SDS011;59604;52.138;5.446;2023-02-18T08:36:21;14.38;;;3.10;;
71767;SDS011;59604;52.138;5.446;2023-02-18T08:38:48;14.20;;;3.10;;
71767;SDS011;59604;52.138;5.446;2023-02-18T08:41:15;14.82;;;3.28;;
71767;SDS011;59604;52.138;5.446;2023-02-18T08:43:44;12.60;;;3.00;;
71767;SDS011;59604;52.138;5.446;2023-02-18T08:46:11;12.70;;;2.83;;
71767;SDS011;59604;52.138;5.446;2023-02-18T08:48:47;16.02;;;2.78;;
71767;SDS011;59604;52.138;5.446;2023-02-18T08:51:18;19.40;;;3.15;;
71767;SDS011;59604;52.138;5.446;2023-02-18T08:53:47;13.13;;;2.22;;
71767;SDS011;59604;52.138;5.446;2023-02-18T08:56:14;9.95;;;2.40;;
71767;SDS011;59604;52.138;5.446;2023-02-18T08:58:43;12.82;;;2.60;;
71767;SDS011;59604;52.138;5.446;2023-02-18T09:01:10;18.60;;;2.65;;
71767;SDS011;59604;52.138;5.446;2023-02-18T09:06:05;13.57;;;2.53;;
71767;SDS011;59604;52.138;5.446;2023-02-18T09:08:33;12.60;;;2.53;;
71767;SDS011;59604;52.138;5.446;2023-02-18T09:11:00;13.60;;;2.20;;
71767;SDS011;59604;52.138;5.446;2023-02-18T09:13:30;12.50;;;2.60;;
71767;SDS011;59604;52.138;5.446;2023-02-18T09:16:16;16.75;;;2.35;;
71767;SDS011;59604;52.138;5.446;2023-02-18T09:18:44;11.13;;;2.28;;
71767;SDS011;59604;52.138;5.446;2023-02-18T09:21:12;14.60;;;2.90;;
71767;SDS011;59604;52.138;5.446;2023-02-18T09:23:41;13.00;;;2.50;;
71767;SDS011;59604;52.138;5.446;2023-02-18T09:26:09;14.65;;;2.47;;
71767;SDS011;59604;52.138;5.446;2023-02-18T09:28:38;11.25;;;2.25;;
71767;SDS011;59604;52.138;5.446;2023-02-18T09:31:09;12.38;;;2.40;;
71767;SDS011;59604;52.138;5.446;2023-02-18T09:33:39;15.13;;;2.50;;
71767;SDS011;59604;52.138;5.446;2023-02-18T09:36:11;12.32;;;2.20;;
71767;SDS011;59604;52.138;5.446;2023-02-18T09:38:38;12.90;;;2.30;;
71767;SDS011;59604;52.138;5.446;2023-02-18T09:41:06;12.80;;;2.30;;
71767;SDS011;59604;52.138;5.446;2023-02-18T09:43:41;10.90;;;2.28;;
71767;SDS011;59604;52.138;5.446;2023-02-18T09:46:17;9.55;;;2.50;;
71767;SDS011;59604;52.138;5.446;2023-02-18T09:48:47;13.13;;;2.80;;
71767;SDS011;59604;52.138;5.446;2023-02-18T09:51:14;10.32;;;2.58;;
71767;SDS011;59604;52.138;5.446;2023-02-18T09:53:42;10.45;;;2.30;;
71767;SDS011;59604;52.138;5.446;2023-02-18T09:56:13;10.77;;;2.08;;
71767;SDS011;59604;52.138;5.446;2023-02-18T09:58:52;10.02;;;2.17;;
71767;SDS011;59604;52.138;5.446;2023-02-18T10:01:24;8.52;;;1.92;;
71767;SDS011;59604;52.138;5.446;2023-02-18T10:03:57;11.10;;;2.00;;
71767;SDS011;59604;52.138;5.446;2023-02-18T10:06:31;10.45;;;1.95;;
71767;SDS011;59604;52.138;5.446;2023-02-18T10:09:01;12.65;;;2.10;;
71767;SDS011;59604;52.138;5.446;2023-02-18T10:11:32;11.73;;;2.28;;
71767;SDS011;59604;52.138;5.446;2023-02-18T10:14:05;9.45;;;1.95;;
71767;SDS011;59604;52.138;5.446;2023-02-18T10:16:36;12.18;;;2.33;;
71767;SDS011;59604;52.138;5.446;2023-02-18T10:19:05;15.98;;;3.40;;
71767;SDS011;59604;52.138;5.446;2023-02-18T10:22:07;11.48;;;2.03;;
71767;SDS011;59604;52.138;5.446;2023-02-18T10:24:41;7.68;;;1.77;;
71767;SDS011;59604;52.138;5.446;2023-02-18T10:27:14;13.73;;;3.28;;
71767;SDS011;59604;52.138;5.446;2023-02-18T10:29:50;29.00;;;7.72;;
71767;SDS011;59604;52.138;5.446;2023-02-18T10:32:26;15.40;;;3.38;;
71767;SDS011;59604;52.138;5.446;2023-02-18T10:37:59;15.77;;;2.65;;
71767;SDS011;59604;52.138;5.446;2023-02-18T10:40:53;11.20;;;3.13;;
71767;SDS011;59604;52.138;5.446;2023-02-18T10:43:44;15.05;;;2.72;;
71767;SDS011;59604;52.138;5.446;2023-02-18T10:46:36;12.57;;;2.17;;
71767;SDS011;59604;52.138;5.446;2023-02-18T10:52:20;13.70;;;3.50;;
71767;SDS011;59604;52.138;5.446;2023-02-18T10:54:49;12.20;;;2.40;;
71767;SDS011;59604;52.138;5.446;2023-02-18T10:57:23;9.60;;;2.40;;
71767;SDS011;59604;52.138;5.446;2023-02-18T11:05:43;9.88;;;2.28;;
71767;SDS011;59604;52.138;5.446;2023-02-18T11:08:13;12.40;;;2.35;;
71767;SDS011;59604;52.138;5.446;2023-02-18T11:10:44;13.27;;;2.25;;
71767;SDS011;59604;52.138;5.446;2023-02-18T11:13:13;10.25;;;2.45;;
71767;SDS011;59604;52.138;5.446;2023-02-18T11:15:56;14.30;;;2.60;;
71767;SDS011;59604;52.138;5.446;2023-02-18T11:18:32;13.70;;;2.20;;
71767;SDS011;59604;52.138;5.446;2023-02-18T11:21:05;9.93;;;1.90;;
71767;SDS011;59604;52.138;5.446;2023-02-18T11:23:53;11.43;;;2.63;;
71767;SDS011;59604;52.138;5.446;2023-02-18T11:26:29;10.48;;;2.15;;
71767;SDS011;59604;52.138;5.446;2023-02-18T11:29:04;11.68;;;2.13;;
71767;SDS011;59604;52.138;5.446;2023-02-18T11:31:43;11.82;;;2.45;;
71767;SDS011;59604;52.138;5.446;2023-02-18T11:34:20;8.25;;;2.08;;
71767;SDS011;59604;52.138;5.446;2023-02-18T11:36:49;12.73;;;2.08;;
71767;SDS011;59604;52.138;5.446;2023-02-18T11:39:21;12.73;;;1.90;;
71767;SDS011;59604;52.138;5.446;2023-02-18T11:44:36;10.68;;;2.05;;
71767;SDS011;59604;52.138;5.446;2023-02-18T11:47:06;13.27;;;2.35;;
71767;SDS011;59604;52.138;5.446;2023-02-18T11:49:58;9.88;;;1.95;;
71767;SDS011;59604;52.138;5.446;2023-02-18T11:52:40;24.45;;;6.40;;
71767;SDS011;59604;52.138;5.446;2023-02-18T11:57:58;12.10;;;2.78;;
71767;SDS011;59604;52.138;5.446;2023-02-18T12:03:17;12.13;;;3.92;;
71767;SDS011;59604;52.138;5.446;2023-02-18T12:06:00;13.00;;;3.15;;
71767;SDS011;59604;52.138;5.446;2023-02-18T12:08:32;17.55;;;4.97;;
71767;SDS011;59604;52.138;5.446;2023-02-18T12:11:15;10.13;;;2.50;;
71767;SDS011;59604;52.138;5.446;2023-02-18T12:13:57;13.80;;;2.50;;
71767;SDS011;59604;52.138;5.446;2023-02-18T12:22:00;10.82;;;2.42;;
71767;SDS011;59604;52.138;5.446;2023-02-18T12:44:13;10.20;;;2.45;;
71767;SDS011;59604;52.138;5.446;2023-02-18T12:49:38;8.60;;;2.13;;
71767;SDS011;59604;52.138;5.446;2023-02-18T12:58:22;13.30;;;1.67;;
71767;SDS011;59604;52.138;5.446;2023-02-18T13:03:55;8.90;;;1.77;;
71767;SDS011;59604;52.138;5.446;2023-02-18T13:06:57;9.80;;;1.70;;
71767;SDS011;59604;52.138;5.446;2023-02-18T13:17:54;7.53;;;1.38;;
71767;SDS011;59604;52.138;5.446;2023-02-18T13:20:34;8.27;;;1.50;;
71767;SDS011;59604;52.138;5.446;2023-02-18T13:23:05;6.40;;;1.42;;
71767;SDS011;59604;52.138;5.446;2023-02-18T13:25:41;8.38;;;1.50;;
71767;SDS011;59604;52.138;5.446;2023-02-18T13:28:17;8.02;;;1.45;;
71767;SDS011;59604;52.138;5.446;2023-02-18T13:31:09;9.57;;;2.00;;
71767;SDS011;59604;52.138;5.446;2023-02-18T13:36:20;11.70;;;1.80;;
71767;SDS011;59604;52.138;5.446;2023-02-18T13:39:21;11.35;;;1.75;;
71767;SDS011;59604;52.138;5.446;2023-02-18T13:41:50;10.68;;;1.70;;
71767;SDS011;59604;52.138;5.446;2023-02-18T13:44:39;5.63;;;1.38;;
71767;SDS011;59604;52.138;5.446;2023-02-18T13:50:22;6.32;;;1.50;;
71767;SDS011;59604;52.138;5.446;2023-02-18T13:55:38;6.50;;;1.60;;
71767;SDS011;59604;52.138;5.446;2023-02-18T13:58:41;5.60;;;1.60;;
71767;SDS011;59604;52.138;5.446;2023-02-18T14:06:18;7.57;;;1.35;;
71767;SDS011;59604;52.138;5.446;2023-02-18T14:08:46;6.18;;;1.50;;
71767;SDS011;59604;52.138;5.446;2023-02-18T14:13:42;6.07;;;1.30;;
71767;SDS011;59604;52.138;5.446;2023-02-18T14:16:12;6.35;;;1.50;;
71767;SDS011;59604;52.138;5.446;2023-02-18T14:23:55;7.07;;;1.50;;
71767;SDS011;59604;52.138;5.446;2023-02-18T14:26:24;8.98;;;1.67;;
71767;SDS011;59604;52.138;5.446;2023-02-18T14:28:56;5.55;;;1.40;;
71767;SDS011;59604;52.138;5.446;2023-02-18T14:31:31;7.10;;;1.70;;
71767;SDS011;59604;52.138;5.446;2023-02-18T14:36:45;8.38;;;1.70;;
71767;SDS011;59604;52.138;5.446;2023-02-18T14:50:34;7.07;;;1.75;;
71767;SDS011;59604;52.138;5.446;2023-02-18T14:53:04;8.57;;;1.70;;
71767;SDS011;59604;52.138;5.446;2023-02-18T14:55:34;7.38;;;1.60;;
71767;SDS011;59604;52.138;5.446;2023-02-18T14:58:05;7.50;;;1.65;;
71767;SDS011;59604;52.138;5.446;2023-02-18T15:00:39;6.90;;;1.73;;
71767;SDS011;59604;52.138;5.446;2023-02-18T15:03:10;8.55;;;1.70;;
71767;SDS011;59604;52.138;5.446;2023-02-18T15:05:40;6.90;;;1.70;;
71767;SDS011;59604;52.138;5.446;2023-02-18T15:08:14;8.40;;;1.80;;
71767;SDS011;59604;52.138;5.446;2023-02-18T15:10:43;13.32;;;2.20;;
71767;SDS011;59604;52.138;5.446;2023-02-18T15:13:24;9.75;;;2.00;;
71767;SDS011;59604;52.138;5.446;2023-02-18T15:16:02;7.07;;;1.85;;
71767;SDS011;59604;52.138;5.446;2023-02-18T15:21:04;7.85;;;1.50;;
71767;SDS011;59604;52.138;5.446;2023-02-18T15:23:34;8.35;;;1.90;;
71767;SDS011;59604;52.138;5.446;2023-02-18T15:26:02;7.13;;;1.70;;
71767;SDS011;59604;52.138;5.446;2023-02-18T15:28:31;7.80;;;1.98;;
71767;SDS011;59604;52.138;5.446;2023-02-18T15:31:00;10.70;;;1.77;;
71767;SDS011;59604;52.138;5.446;2023-02-18T15:33:28;6.95;;;2.00;;
71767;SDS011;59604;52.138;5.446;2023-02-18T15:36:02;9.15;;;2.45;;
71767;SDS011;59604;52.138;5.446;2023-02-18T15:38:31;8.57;;;2.05;;
71767;SDS011;59604;52.138;5.446;2023-02-18T15:40:58;7.47;;;2.00;;
71767;SDS011;59604;52.138;5.446;2023-02-18T15:43:26;10.45;;;4.78;;
71767;SDS011;59604;52.138;5.446;2023-02-18T15:45:53;20.73;;;9.35;;
71767;SDS011;59604;52.138;5.446;2023-02-18T15:51:10;8.82;;;2.25;;
71767;SDS011;59604;52.138;5.446;2023-02-18T15:53:44;12.20;;;6.10;;
71767;SDS011;59604;52.138;5.446;2023-02-18T15:56:17;9.05;;;2.83;;
71767;SDS011;59604;52.138;5.446;2023-02-18T16:01:47;7.97;;;2.10;;
71767;SDS011;59604;52.138;5.446;2023-02-18T16:04:16;8.68;;;2.50;;
71767;SDS011;59604;52.138;5.446;2023-02-18T16:06:46;8.75;;;2.67;;
71767;SDS011;59604;52.138;5.446;2023-02-18T16:09:19;8.38;;;3.10;;
71767;SDS011;59604;52.138;5.446;2023-02-18T16:11:52;10.35;;;3.03;;
71767;SDS011;59604;52.138;5.446;2023-02-18T16:17:02;11.82;;;3.00;;
71767;SDS011;59604;52.138;5.446;2023-02-18T16:19:32;11.30;;;3.92;;
71767;SDS011;59604;52.138;5.446;2023-02-18T16:22:03;11.50;;;3.97;;
71767;SDS011;59604;52.138;5.446;2023-02-18T16:24:37;15.25;;;5.40;;
71767;SDS011;59604;52.138;5.446;2023-02-18T16:27:11;15.23;;;5.50;;
71767;SDS011;59604;52.138;5.446;2023-02-18T16:29:42;13.02;;;3.75;;
71767;SDS011;59604;52.138;5.446;2023-02-18T16:32:09;13.10;;;3.45;;
71767;SDS011;59604;52.138;5.446;2023-02-18T16:34:36;11.02;;;3.22;;
71767;SDS011;59604;52.138;5.446;2023-02-18T16:37:03;11.55;;;3.30;;
71767;SDS011;59604;52.138;5.446;2023-02-18T16:39:48;13.00;;;3.65;;
71767;SDS011;59604;52.138;5.446;2023-02-18T16:42:17;12.18;;;4.03;;
71767;SDS011;59604;52.138;5.446;2023-02-18T16:44:43;12.77;;;4.47;;
71767;SDS011;59604;52.138;5.446;2023-02-18T16:47:11;13.38;;;4.10;;
71767;SDS011;59604;52.138;5.446;2023-02-18T16:49:45;9.90;;;3.58;;
71767;SDS011;59604;52.138;5.446;2023-02-18T16:52:15;13.40;;;4.82;;
71767;SDS011;59604;52.138;5.446;2023-02-18T16:54:43;15.93;;;4.10;;
71767;SDS011;59604;52.138;5.446;2023-02-18T16:57:09;19.25;;;5.03;;
71767;SDS011;59604;52.138;5.446;2023-02-18T16:59:36;13.90;;;4.80;;
71767;SDS011;59604;52.138;5.446;2023-02-18T17:02:03;14.93;;;5.03;;
71767;SDS011;59604;52.138;5.446;2023-02-18T17:04:29;14.35;;;4.47;;
71767;SDS011;59604;52.138;5.446;2023-02-18T17:06:56;13.10;;;4.20;;
71767;SDS011;59604;52.138;5.446;2023-02-18T17:09:23;12.98;;;4.70;;
71767;SDS011;59604;52.138;5.446;2023-02-18T17:11:53;12.10;;;4.47;;
71767;SDS011;59604;52.138;5.446;2023-02-18T17:14:21;14.48;;;5.55;;
71767;SDS011;59604;52.138;5.446;2023-02-18T17:16:49;18.05;;;4.28;;
71767;SDS011;59604;52.138;5.446;2023-02-18T17:19:18;26.02;;;9.25;;
71767;SDS011;59604;52.138;5.446;2023-02-18T17:21:45;15.52;;;5.57;;
71767;SDS011;59604;52.138;5.446;2023-02-18T17:24:15;13.30;;;4.82;;
71767;SDS011;59604;52.138;5.446;2023-02-18T17:26:42;17.40;;;6.35;;
71767;SDS011;59604;52.138;5.446;2023-02-18T17:29:10;16.13;;;4.93;;
71767;SDS011;59604;52.138;5.446;2023-02-18T17:31:41;15.57;;;4.38;;
71767;SDS011;59604;52.138;5.446;2023-02-18T17:34:13;17.33;;;5.60;;
71767;SDS011;59604;52.138;5.446;2023-02-18T17:36:41;16.88;;;5.35;;
71767;SDS011;59604;52.138;5.446;2023-02-18T17:39:14;14.77;;;5.07;;